sensor_id;sensor_type;location;lat;lon;timestamp;P1;durP1;ratioP1;P2;durP2;ratioP2
24147;SDS011;12309;51.450;-2.624;2023-01-20T00:00:28;11.80;;;4.67;;
24147;SDS011;12309;51.450;-2.624;2023-01-20T00:02:55;14.27;;;4.60;;
24147;SDS011;12309;51.450;-2.624;2023-01-20T00:05:21;14.17;;;4.00;;
24147;SDS011;12309;51.450;-2.624;2023-01-20T00:07:47;11.33;;;4.17;;
24147;SDS011;12309;51.450;-2.624;2023-01-20T00:10:12;13.53;;;4.00;;
24147;SDS011;12309;51.450;-2.624;2023-01-20T00:12:38;15.30;;;4.83;;
24147;SDS011;12309;51.450;-2.624;2023-01-20T00:15:04;17.80;;;4.97;;
24147;SDS011;12309;51.450;-2.624;2023-01-20T00:17:30;15.50;;;5.30;;
24147;SDS011;12309;51.450;-2.624;2023-01-20T00:19:56;8.87;;;4.03;;
24147;SDS011;12309;51.450;-2.624;2023-01-20T00:22:22;12.73;;;4.50;;
24147;SDS011;12309;51.450;-2.624;2023-01-20T00:24:47;10.73;;;4.70;;
24147;SDS011;12309;51.450;-2.624;2023-01-20T00:27:14;12.63;;;4.03;;
24147;SDS011;12309;51.450;-2.624;2023-01-20T00:29:40;12.20;;;4.07;;
24147;SDS011;12309;51.450;-2.624;2023-01-20T00:32:08;14.43;;;4.97;;
24147;SDS011;12309;51.450;-2.624;2023-01-20T00:34:35;13.33;;;4.50;;
24147;SDS011;12309;51.450;-2.624;2023-01-20T00:37:00;14.23;;;3.70;;
24147;SDS011;12309;51.450;-2.624;2023-01-20T00:39:26;12.03;;;4.53;;
24147;SDS011;12309;51.450;-2.624;2023-01-20T00:41:52;6.37;;;3.30;;
24147;SDS011;12309;51.450;-2.624;2023-01-20T00:44:17;7.77;;;2.00;;
24147;SDS011;12309;51.450;-2.624;2023-01-20T00:46:43;8.00;;;1.97;;
24147;SDS011;12309;51.450;-2.624;2023-01-20T00:49:09;7.60;;;2.40;;
24147;SDS011;12309;51.450;-2.624;2023-01-20T00:51:35;9.00;;;2.20;;
24147;SDS011;12309;51.450;-2.624;2023-01-20T00:54:00;7.60;;;1.67;;
24147;SDS011;12309;51.450;-2.624;2023-01-20T00:56:26;8.03;;;2.23;;
24147;SDS011;12309;51.450;-2.624;2023-01-20T00:58:52;11.03;;;2.00;;
24147;SDS011;12309;51.450;-2.624;2023-01-20T01:01:19;6.40;;;1.53;;
24147;SDS011;12309;51.450;-2.624;2023-01-20T01:03:45;7.07;;;1.90;;
24147;SDS011;12309;51.450;-2.624;2023-01-20T01:06:12;7.70;;;1.93;;
24147;SDS011;12309;51.450;-2.624;2023-01-20T01:08:40;5.47;;;2.00;;
24147;SDS011;12309;51.450;-2.624;2023-01-20T01:11:07;11.47;;;1.83;;
24147;SDS011;12309;51.450;-2.624;2023-01-20T01:13:34;7.97;;;1.83;;
24147;SDS011;12309;51.450;-2.624;2023-01-20T01:16:02;9.37;;;1.97;;
24147;SDS011;12309;51.450;-2.624;2023-01-20T01:18:29;4.67;;;1.40;;
24147;SDS011;12309;51.450;-2.624;2023-01-20T01:20:55;4.77;;;1.60;;
24147;SDS011;12309;51.450;-2.624;2023-01-20T01:23:21;9.03;;;1.60;;
24147;SDS011;12309;51.450;-2.624;2023-01-20T01:25:46;7.00;;;1.73;;
24147;SDS011;12309;51.450;-2.624;2023-01-20T01:28:12;5.00;;;1.40;;
24147;SDS011;12309;51.450;-2.624;2023-01-20T01:30:38;4.90;;;1.20;;
24147;SDS011;12309;51.450;-2.624;2023-01-20T01:33:04;5.47;;;1.40;;
24147;SDS011;12309;51.450;-2.624;2023-01-20T01:35:29;6.10;;;1.43;;
24147;SDS011;12309;51.450;-2.624;2023-01-20T01:37:55;7.77;;;1.40;;
24147;SDS011;12309;51.450;-2.624;2023-01-20T01:40:21;8.70;;;1.40;;
24147;SDS011;12309;51.450;-2.624;2023-01-20T01:42:46;7.00;;;1.23;;
24147;SDS011;12309;51.450;-2.624;2023-01-20T01:47:47;5.13;;;1.20;;
24147;SDS011;12309;51.450;-2.624;2023-01-20T01:50:19;5.47;;;1.77;;
24147;SDS011;12309;51.450;-2.624;2023-01-20T01:52:58;6.47;;;1.80;;
24147;SDS011;12309;51.450;-2.624;2023-01-20T01:55:25;4.80;;;1.23;;
24147;SDS011;12309;51.450;-2.624;2023-01-20T01:57:54;6.60;;;1.30;;
24147;SDS011;12309;51.450;-2.624;2023-01-20T02:00:22;5.63;;;1.70;;
24147;SDS011;12309;51.450;-2.624;2023-01-20T02:02:48;2.83;;;1.23;;
24147;SDS011;12309;51.450;-2.624;2023-01-20T02:05:14;10.13;;;1.40;;
24147;SDS011;12309;51.450;-2.624;2023-01-20T02:07:41;7.80;;;1.40;;
24147;SDS011;12309;51.450;-2.624;2023-01-20T02:10:10;4.87;;;1.20;;
24147;SDS011;12309;51.450;-2.624;2023-01-20T02:12:36;17.60;;;1.70;;
24147;SDS011;12309;51.450;-2.624;2023-01-20T02:15:02;7.67;;;1.50;;
24147;SDS011;12309;51.450;-2.624;2023-01-20T02:23:26;5.80;;;1.50;;
24147;SDS011;12309;51.450;-2.624;2023-01-20T02:26:13;1.27;;;0.80;;
24147;SDS011;12309;51.450;-2.624;2023-01-20T02:36:53;4.17;;;0.80;;
24147;SDS011;12309;51.450;-2.624;2023-01-20T02:39:47;3.20;;;0.87;;
24147;SDS011;12309;51.450;-2.624;2023-01-20T02:45:47;3.70;;;0.80;;
24147;SDS011;12309;51.450;-2.624;2023-01-20T02:48:25;2.33;;;1.10;;
24147;SDS011;12309;51.450;-2.624;2023-01-20T02:53:58;9.07;;;1.03;;
24147;SDS011;12309;51.450;-2.624;2023-01-20T02:56:28;11.17;;;1.27;;
24147;SDS011;12309;51.450;-2.624;2023-01-20T02:59:17;5.27;;;1.30;;
24147;SDS011;12309;51.450;-2.624;2023-01-20T03:01:45;6.93;;;1.43;;
24147;SDS011;12309;51.450;-2.624;2023-01-20T03:04:18;4.33;;;1.00;;
24147;SDS011;12309;51.450;-2.624;2023-01-20T03:06:49;3.50;;;1.10;;
24147;SDS011;12309;51.450;-2.624;2023-01-20T03:09:20;6.70;;;1.30;;
24147;SDS011;12309;51.450;-2.624;2023-01-20T03:11:50;5.60;;;1.20;;
24147;SDS011;12309;51.450;-2.624;2023-01-20T03:14:22;9.00;;;1.30;;
24147;SDS011;12309;51.450;-2.624;2023-01-20T03:16:48;14.23;;;2.03;;
24147;SDS011;12309;51.450;-2.624;2023-01-20T03:19:15;6.13;;;1.80;;
24147;SDS011;12309;51.450;-2.624;2023-01-20T03:21:42;10.87;;;1.93;;
24147;SDS011;12309;51.450;-2.624;2023-01-20T03:24:08;8.87;;;1.40;;
24147;SDS011;12309;51.450;-2.624;2023-01-20T03:26:34;6.77;;;1.67;;
24147;SDS011;12309;51.450;-2.624;2023-01-20T03:29:07;8.37;;;1.60;;
24147;SDS011;12309;51.450;-2.624;2023-01-20T03:31:49;11.03;;;1.53;;
24147;SDS011;12309;51.450;-2.624;2023-01-20T03:34:19;6.67;;;1.43;;
24147;SDS011;12309;51.450;-2.624;2023-01-20T03:36:47;5.93;;;1.17;;
24147;SDS011;12309;51.450;-2.624;2023-01-20T03:39:14;12.03;;;1.77;;
24147;SDS011;12309;51.450;-2.624;2023-01-20T03:55:15;8.13;;;1.90;;
24147;SDS011;12309;51.450;-2.624;2023-01-20T03:57:52;2.77;;;1.40;;
24147;SDS011;12309;51.450;-2.624;2023-01-20T04:00:27;8.37;;;1.60;;
24147;SDS011;12309;51.450;-2.624;2023-01-20T04:02:54;6.90;;;1.80;;
24147;SDS011;12309;51.450;-2.624;2023-01-20T04:05:20;13.47;;;1.40;;
24147;SDS011;12309;51.450;-2.624;2023-01-20T04:07:46;11.13;;;1.90;;
24147;SDS011;12309;51.450;-2.624;2023-01-20T04:10:13;7.57;;;1.57;;
24147;SDS011;12309;51.450;-2.624;2023-01-20T04:12:41;11.23;;;1.70;;
24147;SDS011;12309;51.450;-2.624;2023-01-20T04:15:07;6.53;;;1.67;;
24147;SDS011;12309;51.450;-2.624;2023-01-20T04:17:34;8.90;;;1.33;;
24147;SDS011;12309;51.450;-2.624;2023-01-20T04:20:03;6.93;;;1.17;;
24147;SDS011;12309;51.450;-2.624;2023-01-20T04:22:37;5.43;;;1.03;;
24147;SDS011;12309;51.450;-2.624;2023-01-20T04:25:23;5.90;;;1.17;;
24147;SDS011;12309;51.450;-2.624;2023-01-20T04:27:51;5.93;;;1.40;;
24147;SDS011;12309;51.450;-2.624;2023-01-20T04:30:16;7.67;;;1.50;;
24147;SDS011;12309;51.450;-2.624;2023-01-20T04:32:42;7.73;;;1.57;;
24147;SDS011;12309;51.450;-2.624;2023-01-20T04:35:15;5.60;;;1.47;;
24147;SDS011;12309;51.450;-2.624;2023-01-20T04:37:42;7.57;;;1.43;;
24147;SDS011;12309;51.450;-2.624;2023-01-20T04:40:08;9.43;;;1.30;;
24147;SDS011;12309;51.450;-2.624;2023-01-20T04:42:35;5.33;;;1.43;;
24147;SDS011;12309;51.450;-2.624;2023-01-20T04:45:00;6.17;;;1.60;;
24147;SDS011;12309;51.450;-2.624;2023-01-20T04:47:30;7.63;;;1.17;;
24147;SDS011;12309;51.450;-2.624;2023-01-20T04:49:56;6.17;;;1.43;;
24147;SDS011;12309;51.450;-2.624;2023-01-20T04:52:22;5.83;;;1.07;;
24147;SDS011;12309;51.450;-2.624;2023-01-20T04:54:47;7.97;;;1.13;;
24147;SDS011;12309;51.450;-2.624;2023-01-20T04:57:13;11.67;;;1.50;;
24147;SDS011;12309;51.450;-2.624;2023-01-20T04:59:40;7.07;;;1.20;;
24147;SDS011;12309;51.450;-2.624;2023-01-20T05:02:06;3.70;;;1.17;;
24147;SDS011;12309;51.450;-2.624;2023-01-20T05:04:31;5.07;;;1.37;;
24147;SDS011;12309;51.450;-2.624;2023-01-20T05:06:57;8.77;;;1.60;;
24147;SDS011;12309;51.450;-2.624;2023-01-20T05:09:22;7.03;;;1.50;;
24147;SDS011;12309;51.450;-2.624;2023-01-20T05:11:48;6.50;;;1.03;;
24147;SDS011;12309;51.450;-2.624;2023-01-20T05:14:14;10.10;;;1.10;;
24147;SDS011;12309;51.450;-2.624;2023-01-20T05:16:40;4.17;;;1.30;;
24147;SDS011;12309;51.450;-2.624;2023-01-20T05:19:05;7.33;;;1.40;;
24147;SDS011;12309;51.450;-2.624;2023-01-20T05:21:46;5.57;;;1.20;;
24147;SDS011;12309;51.450;-2.624;2023-01-20T05:24:12;1.87;;;0.83;;
24147;SDS011;12309;51.450;-2.624;2023-01-20T05:26:37;3.63;;;0.90;;
24147;SDS011;12309;51.450;-2.624;2023-01-20T05:29:03;7.40;;;1.27;;
24147;SDS011;12309;51.450;-2.624;2023-01-20T05:31:29;7.17;;;1.43;;
24147;SDS011;12309;51.450;-2.624;2023-01-20T05:33:55;5.80;;;1.13;;
24147;SDS011;12309;51.450;-2.624;2023-01-20T05:36:21;7.17;;;1.60;;
24147;SDS011;12309;51.450;-2.624;2023-01-20T05:38:47;5.33;;;1.53;;
24147;SDS011;12309;51.450;-2.624;2023-01-20T05:41:12;5.00;;;1.17;;
24147;SDS011;12309;51.450;-2.624;2023-01-20T05:43:38;6.53;;;1.23;;
24147;SDS011;12309;51.450;-2.624;2023-01-20T05:46:04;8.13;;;1.60;;
24147;SDS011;12309;51.450;-2.624;2023-01-20T05:48:31;9.67;;;1.50;;
24147;SDS011;12309;51.450;-2.624;2023-01-20T05:50:56;8.33;;;1.40;;
24147;SDS011;12309;51.450;-2.624;2023-01-20T05:53:22;7.87;;;1.53;;
24147;SDS011;12309;51.450;-2.624;2023-01-20T05:55:48;9.60;;;1.20;;
24147;SDS011;12309;51.450;-2.624;2023-01-20T05:58:13;9.73;;;1.40;;
24147;SDS011;12309;51.450;-2.624;2023-01-20T06:00:39;7.97;;;1.30;;
24147;SDS011;12309;51.450;-2.624;2023-01-20T06:03:05;8.83;;;1.43;;
24147;SDS011;12309;51.450;-2.624;2023-01-20T06:05:31;3.27;;;1.37;;
24147;SDS011;12309;51.450;-2.624;2023-01-20T06:07:57;5.97;;;1.10;;
24147;SDS011;12309;51.450;-2.624;2023-01-20T06:10:23;7.37;;;1.33;;
24147;SDS011;12309;51.450;-2.624;2023-01-20T06:12:52;10.33;;;1.80;;
24147;SDS011;12309;51.450;-2.624;2023-01-20T06:15:18;4.80;;;1.10;;
24147;SDS011;12309;51.450;-2.624;2023-01-20T06:17:44;10.07;;;1.77;;
24147;SDS011;12309;51.450;-2.624;2023-01-20T06:20:09;5.73;;;1.20;;
24147;SDS011;12309;51.450;-2.624;2023-01-20T06:22:36;7.50;;;1.17;;
24147;SDS011;12309;51.450;-2.624;2023-01-20T06:25:02;5.23;;;1.40;;
24147;SDS011;12309;51.450;-2.624;2023-01-20T06:27:28;7.70;;;1.40;;
24147;SDS011;12309;51.450;-2.624;2023-01-20T06:29:54;9.47;;;1.40;;
24147;SDS011;12309;51.450;-2.624;2023-01-20T06:32:19;6.23;;;1.10;;
24147;SDS011;12309;51.450;-2.624;2023-01-20T06:34:45;3.00;;;1.00;;
24147;SDS011;12309;51.450;-2.624;2023-01-20T06:37:11;4.43;;;1.03;;
24147;SDS011;12309;51.450;-2.624;2023-01-20T06:39:36;9.17;;;1.53;;
24147;SDS011;12309;51.450;-2.624;2023-01-20T06:42:02;9.47;;;1.60;;
24147;SDS011;12309;51.450;-2.624;2023-01-20T06:44:28;5.77;;;1.30;;
24147;SDS011;12309;51.450;-2.624;2023-01-20T06:46:54;5.77;;;1.50;;
24147;SDS011;12309;51.450;-2.624;2023-01-20T06:49:21;6.17;;;1.30;;
24147;SDS011;12309;51.450;-2.624;2023-01-20T06:51:47;7.03;;;1.07;;
24147;SDS011;12309;51.450;-2.624;2023-01-20T06:54:13;12.17;;;1.50;;
24147;SDS011;12309;51.450;-2.624;2023-01-20T06:56:39;9.10;;;1.30;;
24147;SDS011;12309;51.450;-2.624;2023-01-20T06:59:05;10.50;;;1.17;;
24147;SDS011;12309;51.450;-2.624;2023-01-20T07:01:30;5.63;;;1.20;;
24147;SDS011;12309;51.450;-2.624;2023-01-20T07:03:56;4.63;;;1.07;;
24147;SDS011;12309;51.450;-2.624;2023-01-20T07:06:36;4.30;;;1.30;;
24147;SDS011;12309;51.450;-2.624;2023-01-20T07:09:03;5.20;;;1.13;;
24147;SDS011;12309;51.450;-2.624;2023-01-20T07:11:30;8.63;;;1.43;;
24147;SDS011;12309;51.450;-2.624;2023-01-20T07:13:56;9.10;;;1.03;;
24147;SDS011;12309;51.450;-2.624;2023-01-20T07:16:22;6.53;;;1.30;;
24147;SDS011;12309;51.450;-2.624;2023-01-20T07:18:49;9.80;;;1.50;;
24147;SDS011;12309;51.450;-2.624;2023-01-20T07:21:16;3.00;;;0.73;;
24147;SDS011;12309;51.450;-2.624;2023-01-20T07:23:41;3.87;;;1.00;;
24147;SDS011;12309;51.450;-2.624;2023-01-20T07:26:11;8.97;;;1.40;;
24147;SDS011;12309;51.450;-2.624;2023-01-20T07:28:38;9.00;;;1.13;;
24147;SDS011;12309;51.450;-2.624;2023-01-20T07:31:08;7.73;;;0.90;;
24147;SDS011;12309;51.450;-2.624;2023-01-20T07:33:38;9.13;;;1.20;;
24147;SDS011;12309;51.450;-2.624;2023-01-20T07:36:04;10.17;;;0.90;;
24147;SDS011;12309;51.450;-2.624;2023-01-20T07:38:31;10.90;;;1.50;;
24147;SDS011;12309;51.450;-2.624;2023-01-20T07:40:57;5.77;;;1.10;;
24147;SDS011;12309;51.450;-2.624;2023-01-20T07:43:24;6.33;;;1.10;;
24147;SDS011;12309;51.450;-2.624;2023-01-20T07:45:53;10.60;;;1.00;;
24147;SDS011;12309;51.450;-2.624;2023-01-20T07:48:22;6.43;;;1.07;;
24147;SDS011;12309;51.450;-2.624;2023-01-20T07:50:48;5.73;;;1.20;;
24147;SDS011;12309;51.450;-2.624;2023-01-20T07:53:34;7.27;;;0.97;;
24147;SDS011;12309;51.450;-2.624;2023-01-20T07:56:10;7.77;;;1.07;;
24147;SDS011;12309;51.450;-2.624;2023-01-20T07:58:40;7.77;;;1.23;;
24147;SDS011;12309;51.450;-2.624;2023-01-20T08:01:11;6.17;;;1.30;;
24147;SDS011;12309;51.450;-2.624;2023-01-20T08:04:03;6.10;;;0.90;;
24147;SDS011;12309;51.450;-2.624;2023-01-20T08:06:29;16.13;;;1.23;;
24147;SDS011;12309;51.450;-2.624;2023-01-20T08:08:56;4.80;;;0.87;;
24147;SDS011;12309;51.450;-2.624;2023-01-20T08:11:24;4.20;;;1.00;;
24147;SDS011;12309;51.450;-2.624;2023-01-20T08:13:50;6.77;;;0.83;;
24147;SDS011;12309;51.450;-2.624;2023-01-20T08:16:16;5.53;;;1.10;;
24147;SDS011;12309;51.450;-2.624;2023-01-20T08:18:42;3.40;;;1.00;;
24147;SDS011;12309;51.450;-2.624;2023-01-20T08:21:22;10.47;;;1.20;;
24147;SDS011;12309;51.450;-2.624;2023-01-20T08:23:49;4.20;;;1.00;;
24147;SDS011;12309;51.450;-2.624;2023-01-20T08:26:15;6.97;;;1.07;;
24147;SDS011;12309;51.450;-2.624;2023-01-20T08:28:41;5.23;;;0.80;;
24147;SDS011;12309;51.450;-2.624;2023-01-20T08:31:11;5.40;;;0.87;;
24147;SDS011;12309;51.450;-2.624;2023-01-20T08:33:38;7.10;;;0.97;;
24147;SDS011;12309;51.450;-2.624;2023-01-20T08:36:07;6.30;;;1.03;;
24147;SDS011;12309;51.450;-2.624;2023-01-20T08:38:37;4.60;;;1.07;;
24147;SDS011;12309;51.450;-2.624;2023-01-20T08:41:12;4.70;;;1.33;;
24147;SDS011;12309;51.450;-2.624;2023-01-20T08:43:43;10.33;;;1.20;;
24147;SDS011;12309;51.450;-2.624;2023-01-20T08:46:10;8.60;;;1.00;;
24147;SDS011;12309;51.450;-2.624;2023-01-20T08:48:38;4.83;;;0.97;;
24147;SDS011;12309;51.450;-2.624;2023-01-20T08:51:06;14.37;;;1.40;;
24147;SDS011;12309;51.450;-2.624;2023-01-20T08:53:36;6.90;;;1.10;;
24147;SDS011;12309;51.450;-2.624;2023-01-20T08:56:02;4.73;;;1.40;;
24147;SDS011;12309;51.450;-2.624;2023-01-20T08:58:28;10.17;;;0.90;;
24147;SDS011;12309;51.450;-2.624;2023-01-20T09:00:55;5.13;;;1.10;;
24147;SDS011;12309;51.450;-2.624;2023-01-20T09:03:21;7.73;;;1.00;;
24147;SDS011;12309;51.450;-2.624;2023-01-20T09:05:47;9.27;;;0.90;;
24147;SDS011;12309;51.450;-2.624;2023-01-20T09:08:14;4.50;;;1.13;;
24147;SDS011;12309;51.450;-2.624;2023-01-20T09:10:41;10.97;;;1.10;;
24147;SDS011;12309;51.450;-2.624;2023-01-20T09:13:07;9.90;;;0.97;;
24147;SDS011;12309;51.450;-2.624;2023-01-20T09:15:32;9.73;;;1.23;;
24147;SDS011;12309;51.450;-2.624;2023-01-20T09:17:58;6.43;;;1.30;;
24147;SDS011;12309;51.450;-2.624;2023-01-20T09:20:24;9.37;;;1.60;;
24147;SDS011;12309;51.450;-2.624;2023-01-20T09:22:51;10.27;;;1.40;;
24147;SDS011;12309;51.450;-2.624;2023-01-20T09:25:17;4.47;;;1.37;;
24147;SDS011;12309;51.450;-2.624;2023-01-20T09:27:42;9.27;;;1.63;;
24147;SDS011;12309;51.450;-2.624;2023-01-20T09:30:08;8.67;;;1.40;;
24147;SDS011;12309;51.450;-2.624;2023-01-20T09:32:34;6.47;;;1.40;;
24147;SDS011;12309;51.450;-2.624;2023-01-20T09:35:00;10.37;;;1.60;;
24147;SDS011;12309;51.450;-2.624;2023-01-20T09:37:25;6.10;;;1.60;;
24147;SDS011;12309;51.450;-2.624;2023-01-20T09:40:11;3.67;;;1.27;;
24147;SDS011;12309;51.450;-2.624;2023-01-20T09:46:00;5.90;;;1.53;;
24147;SDS011;12309;51.450;-2.624;2023-01-20T09:51:54;7.63;;;1.07;;
24147;SDS011;12309;51.450;-2.624;2023-01-20T09:54:57;7.80;;;1.37;;
24147;SDS011;12309;51.450;-2.624;2023-01-20T09:57:30;6.43;;;1.53;;
24147;SDS011;12309;51.450;-2.624;2023-01-20T10:00:03;6.03;;;1.47;;
24147;SDS011;12309;51.450;-2.624;2023-01-20T10:02:34;4.80;;;1.33;;
24147;SDS011;12309;51.450;-2.624;2023-01-20T10:05:03;7.37;;;1.03;;
24147;SDS011;12309;51.450;-2.624;2023-01-20T10:07:39;10.23;;;2.00;;
24147;SDS011;12309;51.450;-2.624;2023-01-20T10:10:22;6.67;;;1.20;;
24147;SDS011;12309;51.450;-2.624;2023-01-20T10:12:55;7.30;;;1.20;;
24147;SDS011;12309;51.450;-2.624;2023-01-20T10:15:28;6.20;;;1.30;;
24147;SDS011;12309;51.450;-2.624;2023-01-20T10:18:16;6.27;;;1.13;;
24147;SDS011;12309;51.450;-2.624;2023-01-20T10:20:55;8.03;;;1.40;;
24147;SDS011;12309;51.450;-2.624;2023-01-20T10:23:23;6.33;;;1.20;;
24147;SDS011;12309;51.450;-2.624;2023-01-20T10:25:53;8.77;;;1.40;;
24147;SDS011;12309;51.450;-2.624;2023-01-20T10:28:27;6.23;;;1.50;;
24147;SDS011;12309;51.450;-2.624;2023-01-20T10:30:58;5.77;;;1.50;;
24147;SDS011;12309;51.450;-2.624;2023-01-20T10:33:28;6.07;;;1.27;;
24147;SDS011;12309;51.450;-2.624;2023-01-20T10:36:09;7.97;;;1.70;;
24147;SDS011;12309;51.450;-2.624;2023-01-20T10:41:39;10.67;;;2.23;;
24147;SDS011;12309;51.450;-2.624;2023-01-20T10:44:13;12.13;;;2.37;;
24147;SDS011;12309;51.450;-2.624;2023-01-20T10:57:56;7.47;;;2.93;;
24147;SDS011;12309;51.450;-2.624;2023-01-20T11:00:36;6.93;;;2.13;;
24147;SDS011;12309;51.450;-2.624;2023-01-20T11:03:03;8.20;;;2.30;;
24147;SDS011;12309;51.450;-2.624;2023-01-20T11:05:35;7.17;;;2.17;;
24147;SDS011;12309;51.450;-2.624;2023-01-20T11:08:02;4.33;;;1.87;;
24147;SDS011;12309;51.450;-2.624;2023-01-20T11:10:34;8.10;;;2.20;;
24147;SDS011;12309;51.450;-2.624;2023-01-20T11:13:00;10.77;;;1.97;;
24147;SDS011;12309;51.450;-2.624;2023-01-20T11:26:17;10.43;;;1.90;;
24147;SDS011;12309;51.450;-2.624;2023-01-20T11:31:12;7.57;;;1.40;;
24147;SDS011;12309;51.450;-2.624;2023-01-20T11:33:39;8.32;;;1.33;;
24147;SDS011;12309;51.450;-2.624;2023-01-20T11:36:16;8.50;;;1.38;;
24147;SDS011;12309;51.450;-2.624;2023-01-20T11:38:47;6.25;;;1.40;;
24147;SDS011;12309;51.450;-2.624;2023-01-20T11:41:19;7.32;;;1.38;;
24147;SDS011;12309;51.450;-2.624;2023-01-20T11:43:47;11.00;;;3.38;;
24147;SDS011;12309;51.450;-2.624;2023-01-20T11:48:43;5.38;;;1.20;;
24147;SDS011;12309;51.450;-2.624;2023-01-20T11:51:22;7.32;;;1.77;;
24147;SDS011;12309;51.450;-2.624;2023-01-20T11:53:49;11.23;;;2.50;;
24147;SDS011;12309;51.450;-2.624;2023-01-20T11:56:23;12.10;;;1.70;;
24147;SDS011;12309;51.450;-2.624;2023-01-20T12:01:27;8.05;;;1.92;;
24147;SDS011;12309;51.450;-2.624;2023-01-20T12:06:48;15.73;;;1.85;;
24147;SDS011;12309;51.450;-2.624;2023-01-20T12:09:27;5.72;;;1.67;;
24147;SDS011;12309;51.450;-2.624;2023-01-20T12:11:58;3.78;;;1.15;;
24147;SDS011;12309;51.450;-2.624;2023-01-20T12:14:32;11.98;;;1.65;;
24147;SDS011;12309;51.450;-2.624;2023-01-20T12:19:56;14.35;;;1.90;;
24147;SDS011;12309;51.450;-2.624;2023-01-20T12:25:15;6.57;;;1.60;;
24147;SDS011;12309;51.450;-2.624;2023-01-20T12:28:22;8.95;;;1.75;;
24147;SDS011;12309;51.450;-2.624;2023-01-20T12:31:05;4.75;;;1.30;;
24147;SDS011;12309;51.450;-2.624;2023-01-20T12:33:41;10.77;;;1.40;;
24147;SDS011;12309;51.450;-2.624;2023-01-20T12:39:05;8.45;;;1.60;;
24147;SDS011;12309;51.450;-2.624;2023-01-20T12:44:23;7.15;;;2.10;;
24147;SDS011;12309;51.450;-2.624;2023-01-20T12:49:59;4.53;;;1.30;;
24147;SDS011;12309;51.450;-2.624;2023-01-20T12:52:43;8.35;;;2.78;;
24147;SDS011;12309;51.450;-2.624;2023-01-20T12:55:21;7.75;;;2.20;;
24147;SDS011;12309;51.450;-2.624;2023-01-20T13:14:31;7.10;;;1.60;;
24147;SDS011;12309;51.450;-2.624;2023-01-20T13:17:18;9.40;;;1.75;;
24147;SDS011;12309;51.450;-2.624;2023-01-20T13:20:03;10.48;;;2.33;;
24147;SDS011;12309;51.450;-2.624;2023-01-20T13:22:38;14.25;;;2.72;;
24147;SDS011;12309;51.450;-2.624;2023-01-20T13:25:04;18.88;;;2.50;;
24147;SDS011;12309;51.450;-2.624;2023-01-20T13:27:34;9.95;;;2.03;;
24147;SDS011;12309;51.450;-2.624;2023-01-20T13:30:02;10.95;;;2.00;;
24147;SDS011;12309;51.450;-2.624;2023-01-20T13:32:33;11.13;;;2.25;;
24147;SDS011;12309;51.450;-2.624;2023-01-20T13:37:54;18.50;;;2.05;;
24147;SDS011;12309;51.450;-2.624;2023-01-20T13:48:30;15.80;;;2.10;;
24147;SDS011;12309;51.450;-2.624;2023-01-20T13:53:53;14.15;;;1.80;;
24147;SDS011;12309;51.450;-2.624;2023-01-20T13:56:39;7.30;;;1.90;;
24147;SDS011;12309;51.450;-2.624;2023-01-20T13:59:06;15.00;;;2.05;;
24147;SDS011;12309;51.450;-2.624;2023-01-20T14:01:32;11.57;;;2.03;;
24147;SDS011;12309;51.450;-2.624;2023-01-20T14:06:49;9.80;;;1.88;;
24147;SDS011;12309;51.450;-2.624;2023-01-20T14:09:17;6.75;;;1.70;;
24147;SDS011;12309;51.450;-2.624;2023-01-20T14:11:49;10.95;;;1.70;;
24147;SDS011;12309;51.450;-2.624;2023-01-20T14:14:23;9.70;;;2.00;;
24147;SDS011;12309;51.450;-2.624;2023-01-20T14:16:50;12.65;;;2.20;;
24147;SDS011;12309;51.450;-2.624;2023-01-20T14:19:33;18.05;;;2.78;;
24147;SDS011;12309;51.450;-2.624;2023-01-20T14:22:02;14.85;;;2.03;;
24147;SDS011;12309;51.450;-2.624;2023-01-20T14:24:47;11.05;;;2.20;;
24147;SDS011;12309;51.450;-2.624;2023-01-20T14:29:45;13.18;;;1.90;;
24147;SDS011;12309;51.450;-2.624;2023-01-20T14:34:44;15.90;;;2.67;;
24147;SDS011;12309;51.450;-2.624;2023-01-20T14:37:19;12.70;;;2.22;;
24147;SDS011;12309;51.450;-2.624;2023-01-20T14:39:52;12.13;;;2.50;;
24147;SDS011;12309;51.450;-2.624;2023-01-20T14:42:21;11.20;;;2.33;;
24147;SDS011;12309;51.450;-2.624;2023-01-20T14:44:48;11.88;;;2.42;;
24147;SDS011;12309;51.450;-2.624;2023-01-20T14:47:15;14.10;;;2.42;;
24147;SDS011;12309;51.450;-2.624;2023-01-20T14:49:42;9.00;;;2.63;;
24147;SDS011;12309;51.450;-2.624;2023-01-20T14:52:12;8.25;;;2.20;;
24147;SDS011;12309;51.450;-2.624;2023-01-20T14:54:59;10.43;;;2.72;;
24147;SDS011;12309;51.450;-2.624;2023-01-20T14:57:26;12.00;;;2.30;;
24147;SDS011;12309;51.450;-2.624;2023-01-20T15:00:15;10.95;;;2.42;;
24147;SDS011;12309;51.450;-2.624;2023-01-20T15:03:09;5.75;;;2.42;;
24147;SDS011;12309;51.450;-2.624;2023-01-20T15:06:17;8.52;;;2.35;;
24147;SDS011;12309;51.450;-2.624;2023-01-20T15:16:25;18.85;;;2.95;;
24147;SDS011;12309;51.450;-2.624;2023-01-20T15:21:54;9.70;;;2.25;;
24147;SDS011;12309;51.450;-2.624;2023-01-20T15:24:34;21.45;;;2.38;;
24147;SDS011;12309;51.450;-2.624;2023-01-20T15:27:01;16.77;;;2.67;;
24147;SDS011;12309;51.450;-2.624;2023-01-20T15:29:43;15.25;;;2.08;;
24147;SDS011;12309;51.450;-2.624;2023-01-20T15:32:27;14.88;;;3.53;;
24147;SDS011;12309;51.450;-2.624;2023-01-20T15:34:53;9.48;;;3.80;;
24147;SDS011;12309;51.450;-2.624;2023-01-20T15:37:19;27.52;;;5.93;;
24147;SDS011;12309;51.450;-2.624;2023-01-20T15:39:44;21.35;;;5.85;;
24147;SDS011;12309;51.450;-2.624;2023-01-20T15:42:11;16.20;;;5.05;;
24147;SDS011;12309;51.450;-2.624;2023-01-20T15:44:39;21.45;;;5.40;;
24147;SDS011;12309;51.450;-2.624;2023-01-20T15:47:39;17.60;;;4.10;;
24147;SDS011;12309;51.450;-2.624;2023-01-20T15:49:58;37.25;;;7.03;;
24147;SDS011;12309;51.450;-2.624;2023-01-20T15:52:24;30.48;;;7.57;;
24147;SDS011;12309;51.450;-2.624;2023-01-20T15:54:50;39.55;;;8.70;;
24147;SDS011;12309;51.450;-2.624;2023-01-20T15:57:16;58.00;;;13.68;;
24147;SDS011;12309;51.450;-2.624;2023-01-20T15:59:42;55.95;;;12.82;;
24147;SDS011;12309;51.450;-2.624;2023-01-20T16:02:15;41.97;;;9.77;;
24147;SDS011;12309;51.450;-2.624;2023-01-20T16:04:42;36.38;;;9.25;;
24147;SDS011;12309;51.450;-2.624;2023-01-20T16:07:10;45.67;;;10.85;;
24147;SDS011;12309;51.450;-2.624;2023-01-20T16:09:37;51.92;;;13.18;;
24147;SDS011;12309;51.450;-2.624;2023-01-20T16:12:03;72.45;;;17.83;;
24147;SDS011;12309;51.450;-2.624;2023-01-20T16:14:29;27.45;;;6.47;;
24147;SDS011;12309;51.450;-2.624;2023-01-20T16:16:55;51.95;;;11.43;;
24147;SDS011;12309;51.450;-2.624;2023-01-20T16:19:21;28.70;;;7.47;;
24147;SDS011;12309;51.450;-2.624;2023-01-20T16:21:46;15.77;;;3.03;;
24147;SDS011;12309;51.450;-2.624;2023-01-20T16:24:12;18.10;;;3.73;;
24147;SDS011;12309;51.450;-2.624;2023-01-20T16:26:38;31.10;;;7.43;;
24147;SDS011;12309;51.450;-2.624;2023-01-20T16:29:04;16.50;;;4.47;;
24147;SDS011;12309;51.450;-2.624;2023-01-20T16:31:30;18.63;;;5.53;;
24147;SDS011;12309;51.450;-2.624;2023-01-20T16:33:57;24.27;;;8.10;;
24147;SDS011;12309;51.450;-2.624;2023-01-20T16:36:22;36.93;;;9.30;;
24147;SDS011;12309;51.450;-2.624;2023-01-20T16:38:49;38.53;;;10.00;;
24147;SDS011;12309;51.450;-2.624;2023-01-20T16:41:16;39.57;;;9.10;;
24147;SDS011;12309;51.450;-2.624;2023-01-20T16:43:45;19.07;;;5.40;;
24147;SDS011;12309;51.450;-2.624;2023-01-20T16:46:31;12.93;;;3.53;;
24147;SDS011;12309;51.450;-2.624;2023-01-20T16:48:59;22.67;;;5.90;;
24147;SDS011;12309;51.450;-2.624;2023-01-20T16:51:26;54.90;;;11.07;;
24147;SDS011;12309;51.450;-2.624;2023-01-20T16:53:53;39.00;;;7.57;;
24147;SDS011;12309;51.450;-2.624;2023-01-20T16:56:20;55.23;;;10.40;;
24147;SDS011;12309;51.450;-2.624;2023-01-20T16:58:48;60.40;;;9.83;;
24147;SDS011;12309;51.450;-2.624;2023-01-20T17:01:15;63.70;;;9.50;;
24147;SDS011;12309;51.450;-2.624;2023-01-20T17:03:46;47.57;;;9.90;;